Aranda — OIRY — position and weather

sailwx.info

Track history (hours):
 
Tides and Currents Weather Stations Pressure Air Temp Water Temp Dewpoint Dewpoint Depression Visibility Wind Speed Wind Dir Waves Ship Positions

Oceanographic research ship Aranda (Finland)

Detailed information on ship capabilities available from University of Delaware's Ocean Information Center and ARCUS's ALIAS (Arctic Logistics Information and Support) project.

Last reported at 2018-Jun-13 19:56 UTC. Time now 2018-Jun-21 02:35 UTC.
Position N 61°07' E 021°27'.

Length 66 m.

Type: Neutral ship in war zone. MMSI: 230145000.

Date/timePositionNaut miles runAvg speedWind from/ knotsBaromVisibWave heightAir tempDewpointWater temp
2018-Jun-13 19:56N 61°07' E 021°27'1 1.6
2018-Jun-13 19:30N 61°08' E 021°26'4 8.2
2018-Jun-13 19:00N 61°10' E 021°19'4 8.8
2018-Jun-13 18:30N 61°11' E 021°10'1 1.2
2018-Jun-13 18:00N 61°11' E 021°09'0 0.6
2018-Jun-13 17:30N 61°11' E 021°08'1 1.1
2018-Jun-13 16:59N 61°12' E 021°07'4 7.9
2018-Jun-13 16:30N 61°15' E 021°05'0 0.2
2018-Jun-13 13:40N 61°16' E 021°06'1 9.9
2018-Jun-13 13:31N 61°14' E 021°06'1 1.4
2018-Jun-13 13:00N 61°15' E 021°06'2 0.3
2018-Jun-13 08:08N 61°15' E 021°09'1 7.9
2018-Jun-13 07:59N 61°14' E 021°09'1 2.7
2018-Jun-13 07:28N 61°15' E 021°10'0 0.1
2018-Jun-13 03:15N 61°15' E 021°09'2 9.6
2018-Jun-13 03:00N 61°13' E 021°10'1 2.6
2018-Jun-13 02:30N 61°12' E 021°11'1 1.2
2018-Jun-13 02:00N 61°11' E 021°11'1 1.5
2018-Jun-13 01:30N 61°10' E 021°10'0 0.6
2018-Jun-13 01:00N 61°11' E 021°10'5 3.9
2018-Jun-12 23:39N 61°16' E 021°06'1 7.2
2018-Jun-12 23:30N 61°15' E 021°06'1 1.9
2018-Jun-12 23:00N 61°14' E 021°06'2 3.6
2018-Jun-12 22:28N 61°16' E 021°06'2 1.0
2018-Jun-12 20:43N 61°16' E 021°03'1 6.1
2018-Jun-12 20:31N 61°15' E 021°05'4 8.8
2018-Jun-12 20:00N 61°12' E 021°11'510.5
2018-Jun-12 19:30N 61°10' E 021°21'3 5.2
2018-Jun-12 19:00N 61°08' E 021°25'0 0.0
2018-Jun-12 18:30N 61°08' E 021°25'0 0.0
2018-Jun-12 17:59N 61°08' E 021°25'0 0.1
2018-Jun-12 17:31N 61°08' E 021°25'0 0.0
2018-Jun-12 17:00N 61°08' E 021°25'0 0.0
2018-Jun-12 16:30N 61°08' E 021°25'0 0.1
2018-Jun-12 16:00N 61°08' E 021°25'0 0.1
2018-Jun-12 15:30N 61°08' E 021°25'0 0.9
2018-Jun-12 15:00N 61°08' E 021°25'4 8.3
2018-Jun-12 14:29N 61°10' E 021°17'4 8.7
2018-Jun-12 14:00N 61°13' E 021°11'4 0.7
2018-Jun-12 08:24N 61°16' E 021°04'3 1.4
2018-Jun-12 06:20N 61°16' E 020°58'411.4
2018-Jun-12 06:00N 61°12' E 020°59'4 0.7
2018-Jun-11 23:49N 61°16' E 021°04'1 0.3
2018-Jun-11 21:52N 61°15' E 021°04'1 3.2
2018-Jun-11 21:30N 61°14' E 021°05'3 0.9
2018-Jun-11 18:40N 61°15' E 021°10'1 0.4
2018-Jun-11 17:02N 61°15' E 021°09'111.2
2018-Jun-11 16:54N 61°13' E 021°09'0 0.3
2018-Jun-11 16:18N 61°13' E 021°09'2 5.5
2018-Jun-11 15:56N 61°11' E 021°10'0 0.3
2018-Jun-11 15:30N 61°11' E 021°11'0 0.4
2018-Jun-11 14:54N 61°12' E 021°11'1 1.8
2018-Jun-11 14:30N 61°11' E 021°10'0 0.2
2018-Jun-11 14:00N 61°11' E 021°10'0 0.5
2018-Jun-11 13:30N 61°11' E 021°10'0 0.7
2018-Jun-11 13:00N 61°11' E 021°10'3 5.2
2018-Jun-11 12:30N 61°11' E 021°15'4 7.7
2018-Jun-11 12:00N 61°09' E 021°23'1 2.5
2018-Jun-11 11:30N 61°08' E 021°25'0 0.1
2018-Jun-11 11:00N 61°08' E 021°25'0 0.1
2018-Jun-11 10:30N 61°08' E 021°25'1 1.8
2018-Jun-11 10:00N 61°08' E 021°26'0 0.6
2018-Jun-11 09:30N 61°08' E 021°26'0 0.1
2018-Jun-11 09:00N 61°08' E 021°26'0 0.9
2018-Jun-11 08:30N 61°07' E 021°27'0 0.0
2018-Jun-11 07:55N 61°07' E 021°27'0 0.0
2018-Jun-11 07:30N 61°07' E 021°27'0 0.0
2018-Jun-11 06:59N 61°07' E 021°27'0 0.0
2018-Jun-11 06:27N 61°07' E 021°27'  
2018-Jun-07 11:09N 61°07' E 021°27'0 0.0
2018-Jun-07 11:00N 61°07' E 021°27'0 0.0
2018-Jun-07 10:30N 61°07' E 021°27'0 0.0
2018-Jun-05 11:10N 61°07' E 021°27'0 0.0
2018-Jun-05 10:57N 61°07' E 021°27'0 0.0
2018-Jun-05 10:27N 61°07' E 021°27'0 0.0
2018-Jun-05 09:59N 61°07' E 021°27'0 0.0
2018-Jun-05 09:30N 61°07' E 021°27'0 0.0
2018-Jun-05 08:58N 61°07' E 021°27'0 0.0
2018-Jun-05 08:28N 61°07' E 021°27'0 0.0
2018-Jun-05 07:59N 61°07' E 021°27'0 0.0
2018-Jun-05 07:23N 61°07' E 021°27'0 0.0
2018-Jun-05 06:56N 61°07' E 021°27'0 0.0
2018-Jun-05 06:26N 61°07' E 021°27'0 0.0
2018-Jun-05 05:59N 61°07' E 021°27'0 0.0
2018-Jun-05 05:28N 61°07' E 021°27'0 0.0
2018-Jun-05 05:01N 61°07' E 021°27'0 0.0
2018-Jun-05 04:28N 61°07' E 021°27'0 0.0
2018-Jun-05 03:58N 61°07' E 021°27'0 0.0
2018-Jun-05 03:28N 61°07' E 021°27'0 0.0
2018-Jun-05 02:55N 61°07' E 021°27'0 0.0
2018-Jun-05 02:30N 61°07' E 021°27'0 0.0
2018-Jun-05 01:52N 61°07' E 021°27'0 0.0
2018-Jun-05 01:26N 61°07' E 021°27'0 0.0
2018-Jun-05 00:59N 61°07' E 021°27'0 0.0
2018-Jun-05 00:21N 61°07' E 021°27'0 0.0
2018-Jun-04 23:56N 61°07' E 021°27'0 0.0
2018-Jun-04 23:28N 61°07' E 021°27'0 0.0
2018-Jun-04 22:59N 61°07' E 021°27'0 0.0
2018-Jun-04 22:28N 61°07' E 021°27'0 0.0
2018-Jun-04 21:58N 61°07' E 021°27'0 0.0
2018-Jun-04 21:22N 61°07' E 021°27'0 0.0
2018-Jun-04 20:59N 61°07' E 021°27'0 0.0
2018-Jun-04 20:28N 61°07' E 021°27'0 0.0
2018-Jun-04 19:55N 61°07' E 021°27'0 0.0
2018-Jun-04 19:30N 61°07' E 021°27'0 0.0
2018-Jun-04 18:59N 61°07' E 021°27'0 0.0
2018-Jun-04 18:29N 61°07' E 021°27'0 0.0
2018-Jun-04 17:53N 61°07' E 021°27'0 0.0
2018-Jun-04 17:11N 61°07' E 021°27'0 0.0
2018-Jun-04 16:59N 61°07' E 021°27'0 0.0
2018-Jun-04 16:27N 61°07' E 021°27'0 0.0
2018-Jun-04 15:51N 61°07' E 021°27'0 0.0
2018-Jun-04 15:30N 61°07' E 021°27'0 0.0
2018-Jun-04 14:54N 61°07' E 021°27'0 0.0
2018-Jun-04 14:25N 61°07' E 021°27'0 0.1
2018-Jun-04 14:00N 61°07' E 021°27'0 0.1
2018-Jun-04 13:25N 61°07' E 021°27'0 0.0
2018-Jun-04 12:56N 61°07' E 021°27'0 0.0
2018-Jun-04 12:30N 61°07' E 021°27'0 0.0
2018-Jun-04 11:59N 61°07' E 021°27'0 0.0
2018-Jun-04 11:26N 61°07' E 021°27'0 0.0
2018-Jun-04 10:59N 61°07' E 021°27'0 0.0
2018-Jun-04 10:24N 61°07' E 021°27'0 0.1
2018-Jun-04 10:00N 61°07' E 021°27'0 0.1
2018-Jun-04 09:29N 61°07' E 021°27'0 0.0
2018-Jun-04 09:01N 61°07' E 021°27'0 0.0
2018-Jun-04 08:30N 61°07' E 021°27'0 0.0
2018-Jun-04 07:58N 61°07' E 021°27'0 0.0
2018-Jun-04 07:29N 61°07' E 021°27'0 0.0
2018-Jun-04 06:59N 61°07' E 021°27'0 0.0
2018-Jun-04 06:29N 61°07' E 021°27'0 0.0
2018-Jun-04 05:54N 61°07' E 021°27'0 0.0
2018-Jun-04 05:29N 61°07' E 021°27'0 0.0
2018-Jun-04 04:58N 61°07' E 021°27'0 0.0
2018-Jun-04 04:28N 61°07' E 021°27'0 0.0
2018-Jun-04 03:58N 61°07' E 021°27'0 0.0
2018-Jun-04 03:30N 61°07' E 021°27'0 0.0
2018-Jun-04 03:00N 61°07' E 021°27'0 0.0
2018-Jun-04 02:30N 61°07' E 021°27'0 0.0
2018-Jun-04 01:53N 61°07' E 021°27'0 0.0
2018-Jun-04 01:27N 61°07' E 021°27'0 0.0
2018-Jun-04 01:00N 61°07' E 021°27'0 0.0
2018-Jun-04 00:23N 61°07' E 021°27'0 0.0
2018-Jun-03 23:57N 61°07' E 021°27'0 0.0
2018-Jun-03 23:27N 61°07' E 021°27'0 0.0
2018-Jun-03 22:57N 61°07' E 021°27'0 0.0
2018-Jun-03 22:27N 61°07' E 021°27'0 0.0
2018-Jun-03 22:00N 61°07' E 021°27'0 0.0
2018-Jun-03 21:30N 61°07' E 021°27'0 0.0
2018-Jun-03 20:56N 61°07' E 021°27'0 0.0
2018-Jun-03 20:30N 61°07' E 021°27'0 0.0
2018-Jun-03 19:57N 61°07' E 021°27'  
Track history (hours):
 
Tides and Currents Weather Stations Pressure Air Temp Water Temp Dewpoint Dewpoint Depression Visibility Wind Speed Wind Dir Waves Ship Positions

Oceanographic research ship Aranda (Finland)

Detailed information on ship capabilities available from University of Delaware's Ocean Information Center and ARCUS's ALIAS (Arctic Logistics Information and Support) project.

Last reported at 2018-Jun-13 19:56 UTC. Time now 2018-Jun-21 02:35 UTC.
Position N 61°07' E 021°27'.

Length 66 m.

Type: Neutral ship in war zone. MMSI: 230145000.

Date/timePositionNaut miles runAvg speedWind from/ knotsBaromVisibWave heightAir tempDewpointWater temp
2018-Jun-13 19:56N 61°07' E 021°27'1 1.6
2018-Jun-13 19:30N 61°08' E 021°26'4 8.2
2018-Jun-13 19:00N 61°10' E 021°19'4 8.8
2018-Jun-13 18:30N 61°11' E 021°10'1 1.2
2018-Jun-13 18:00N 61°11' E 021°09'0 0.6
2018-Jun-13 17:30N 61°11' E 021°08'1 1.1
2018-Jun-13 16:59N 61°12' E 021°07'4 7.9
2018-Jun-13 16:30N 61°15' E 021°05'0 0.2
2018-Jun-13 13:40N 61°16' E 021°06'1 9.9
2018-Jun-13 13:31N 61°14' E 021°06'1 1.4
2018-Jun-13 13:00N 61°15' E 021°06'2 0.3
2018-Jun-13 08:08N 61°15' E 021°09'1 7.9
2018-Jun-13 07:59N 61°14' E 021°09'1 2.7
2018-Jun-13 07:28N 61°15' E 021°10'0 0.1
2018-Jun-13 03:15N 61°15' E 021°09'2 9.6
2018-Jun-13 03:00N 61°13' E 021°10'1 2.6
2018-Jun-13 02:30N 61°12' E 021°11'1 1.2
2018-Jun-13 02:00N 61°11' E 021°11'1 1.5
2018-Jun-13 01:30N 61°10' E 021°10'0 0.6
2018-Jun-13 01:00N 61°11' E 021°10'5 3.9
2018-Jun-12 23:39N 61°16' E 021°06'1 7.2
2018-Jun-12 23:30N 61°15' E 021°06'1 1.9
2018-Jun-12 23:00N 61°14' E 021°06'2 3.6
2018-Jun-12 22:28N 61°16' E 021°06'2 1.0
2018-Jun-12 20:43N 61°16' E 021°03'1 6.1
2018-Jun-12 20:31N 61°15' E 021°05'4 8.8
2018-Jun-12 20:00N 61°12' E 021°11'510.5
2018-Jun-12 19:30N 61°10' E 021°21'3 5.2
2018-Jun-12 19:00N 61°08' E 021°25'0 0.0
2018-Jun-12 18:30N 61°08' E 021°25'0 0.0
2018-Jun-12 17:59N 61°08' E 021°25'0 0.1
2018-Jun-12 17:31N 61°08' E 021°25'0 0.0
2018-Jun-12 17:00N 61°08' E 021°25'0 0.0
2018-Jun-12 16:30N 61°08' E 021°25'0 0.1
2018-Jun-12 16:00N 61°08' E 021°25'0 0.1
2018-Jun-12 15:30N 61°08' E 021°25'0 0.9
2018-Jun-12 15:00N 61°08' E 021°25'4 8.3
2018-Jun-12 14:29N 61°10' E 021°17'4 8.7
2018-Jun-12 14:00N 61°13' E 021°11'4 0.7
2018-Jun-12 08:24N 61°16' E 021°04'3 1.4
2018-Jun-12 06:20N 61°16' E 020°58'411.4
2018-Jun-12 06:00N 61°12' E 020°59'4 0.7
2018-Jun-11 23:49N 61°16' E 021°04'1 0.3
2018-Jun-11 21:52N 61°15' E 021°04'1 3.2
2018-Jun-11 21:30N 61°14' E 021°05'3 0.9
2018-Jun-11 18:40N 61°15' E 021°10'1 0.4
2018-Jun-11 17:02N 61°15' E 021°09'111.2
2018-Jun-11 16:54N 61°13' E 021°09'0 0.3
2018-Jun-11 16:18N 61°13' E 021°09'2 5.5
2018-Jun-11 15:56N 61°11' E 021°10'0 0.3
2018-Jun-11 15:30N 61°11' E 021°11'0 0.4
2018-Jun-11 14:54N 61°12' E 021°11'1 1.8
2018-Jun-11 14:30N 61°11' E 021°10'0 0.2
2018-Jun-11 14:00N 61°11' E 021°10'0 0.5
2018-Jun-11 13:30N 61°11' E 021°10'0 0.7
2018-Jun-11 13:00N 61°11' E 021°10'3 5.2
2018-Jun-11 12:30N 61°11' E 021°15'4 7.7
2018-Jun-11 12:00N 61°09' E 021°23'1 2.5
2018-Jun-11 11:30N 61°08' E 021°25'0 0.1
2018-Jun-11 11:00N 61°08' E 021°25'0 0.1
2018-Jun-11 10:30N 61°08' E 021°25'1 1.8
2018-Jun-11 10:00N 61°08' E 021°26'0 0.6
2018-Jun-11 09:30N 61°08' E 021°26'0 0.1
2018-Jun-11 09:00N 61°08' E 021°26'0 0.9
2018-Jun-11 08:30N 61°07' E 021°27'0 0.0
2018-Jun-11 07:55N 61°07' E 021°27'0 0.0
2018-Jun-11 07:30N 61°07' E 021°27'0 0.0
2018-Jun-11 06:59N 61°07' E 021°27'0 0.0
2018-Jun-11 06:27N 61°07' E 021°27'  
2018-Jun-07 11:09N 61°07' E 021°27'0 0.0
2018-Jun-07 11:00N 61°07' E 021°27'0 0.0
2018-Jun-07 10:30N 61°07' E 021°27'0 0.0
2018-Jun-05 11:10N 61°07' E 021°27'0 0.0
2018-Jun-05 10:57N 61°07' E 021°27'0 0.0
2018-Jun-05 10:27N 61°07' E 021°27'0 0.0
2018-Jun-05 09:59N 61°07' E 021°27'0 0.0
2018-Jun-05 09:30N 61°07' E 021°27'0 0.0
2018-Jun-05 08:58N 61°07' E 021°27'0 0.0
2018-Jun-05 08:28N 61°07' E 021°27'0 0.0
2018-Jun-05 07:59N 61°07' E 021°27'0 0.0
2018-Jun-05 07:23N 61°07' E 021°27'0 0.0
2018-Jun-05 06:56N 61°07' E 021°27'0 0.0
2018-Jun-05 06:26N 61°07' E 021°27'0 0.0
2018-Jun-05 05:59N 61°07' E 021°27'0 0.0
2018-Jun-05 05:28N 61°07' E 021°27'0 0.0
2018-Jun-05 05:01N 61°07' E 021°27'0 0.0
2018-Jun-05 04:28N 61°07' E 021°27'0 0.0
2018-Jun-05 03:58N 61°07' E 021°27'0 0.0
2018-Jun-05 03:28N 61°07' E 021°27'0 0.0
2018-Jun-05 02:55N 61°07' E 021°27'0 0.0
2018-Jun-05 02:30N 61°07' E 021°27'0 0.0
2018-Jun-05 01:52N 61°07' E 021°27'0 0.0
2018-Jun-05 01:26N 61°07' E 021°27'0 0.0
2018-Jun-05 00:59N 61°07' E 021°27'0 0.0
2018-Jun-05 00:21N 61°07' E 021°27'0 0.0
2018-Jun-04 23:56N 61°07' E 021°27'0 0.0
2018-Jun-04 23:28N 61°07' E 021°27'0 0.0
2018-Jun-04 22:59N 61°07' E 021°27'0 0.0
2018-Jun-04 22:28N 61°07' E 021°27'0 0.0
2018-Jun-04 21:58N 61°07' E 021°27'0 0.0
2018-Jun-04 21:22N 61°07' E 021°27'0 0.0
2018-Jun-04 20:59N 61°07' E 021°27'0 0.0
2018-Jun-04 20:28N 61°07' E 021°27'0 0.0
2018-Jun-04 19:55N 61°07' E 021°27'0 0.0
2018-Jun-04 19:30N 61°07' E 021°27'0 0.0
2018-Jun-04 18:59N 61°07' E 021°27'0 0.0
2018-Jun-04 18:29N 61°07' E 021°27'0 0.0
2018-Jun-04 17:53N 61°07' E 021°27'0 0.0
2018-Jun-04 17:11N 61°07' E 021°27'0 0.0
2018-Jun-04 16:59N 61°07' E 021°27'0 0.0
2018-Jun-04 16:27N 61°07' E 021°27'0 0.0
2018-Jun-04 15:51N 61°07' E 021°27'0 0.0
2018-Jun-04 15:30N 61°07' E 021°27'0 0.0
2018-Jun-04 14:54N 61°07' E 021°27'0 0.0
2018-Jun-04 14:25N 61°07' E 021°27'0 0.1
2018-Jun-04 14:00N 61°07' E 021°27'0 0.1
2018-Jun-04 13:25N 61°07' E 021°27'0 0.0
2018-Jun-04 12:56N 61°07' E 021°27'0 0.0
2018-Jun-04 12:30N 61°07' E 021°27'0 0.0
2018-Jun-04 11:59N 61°07' E 021°27'0 0.0
2018-Jun-04 11:26N 61°07' E 021°27'0 0.0
2018-Jun-04 10:59N 61°07' E 021°27'0 0.0
2018-Jun-04 10:24N 61°07' E 021°27'0 0.1
2018-Jun-04 10:00N 61°07' E 021°27'0 0.1
2018-Jun-04 09:29N 61°07' E 021°27'0 0.0
2018-Jun-04 09:01N 61°07' E 021°27'0 0.0
2018-Jun-04 08:30N 61°07' E 021°27'0 0.0
2018-Jun-04 07:58N 61°07' E 021°27'0 0.0
2018-Jun-04 07:29N 61°07' E 021°27'0 0.0
2018-Jun-04 06:59N 61°07' E 021°27'0 0.0
2018-Jun-04 06:29N 61°07' E 021°27'0 0.0
2018-Jun-04 05:54N 61°07' E 021°27'0 0.0
2018-Jun-04 05:29N 61°07' E 021°27'0 0.0
2018-Jun-04 04:58N 61°07' E 021°27'0 0.0
2018-Jun-04 04:28N 61°07' E 021°27'0 0.0
2018-Jun-04 03:58N 61°07' E 021°27'0 0.0
2018-Jun-04 03:30N 61°07' E 021°27'0 0.0
2018-Jun-04 03:00N 61°07' E 021°27'0 0.0
2018-Jun-04 02:30N 61°07' E 021°27'0 0.0
2018-Jun-04 01:53N 61°07' E 021°27'0 0.0
2018-Jun-04 01:27N 61°07' E 021°27'0 0.0
2018-Jun-04 01:00N 61°07' E 021°27'0 0.0
2018-Jun-04 00:23N 61°07' E 021°27'0 0.0
2018-Jun-03 23:57N 61°07' E 021°27'0 0.0
2018-Jun-03 23:27N 61°07' E 021°27'0 0.0
2018-Jun-03 22:57N 61°07' E 021°27'0 0.0
2018-Jun-03 22:27N 61°07' E 021°27'0 0.0
2018-Jun-03 22:00N 61°07' E 021°27'0 0.0
2018-Jun-03 21:30N 61°07' E 021°27'0 0.0
2018-Jun-03 20:56N 61°07' E 021°27'0 0.0
2018-Jun-03 20:30N 61°07' E 021°27'0 0.0
2018-Jun-03 19:57N 61°07' E 021°27'  

Dump ship's entire track history